To NAV CANADA Home Page Login to a new session Search on AWWS site Disclaimer Vers la page française équivalente Tips FAQ What's new on the site To the Forecasts and Observations / NOTAM section To "File a Flight Plan" website Publications and other links Update of the User's profile FIC Telephone Numbers My Weather Data Folder Route Weather Data Regional Weather Data Local Weather Data To the Forecasts and Observations / NOTAM section
Request Generated 10/19/2018 at 15:27:38 UTC . Weather information available at that time is displayed.

METAR/TAF

FORT SEVERN/ON    (show WxCam)

SPECI CYER 191519Z AUTO VRB02KT 9SM FEW007 BKN017 OVC023 M03/M04 A2949 RMK SLP990=
SPECI CYER 191512Z AUTO 09002KT 9SM -SN FEW007 SCT019 OVC023 M03/M04 A2950 RMK SLP991=
METAR CYER 191500Z AUTO 09002KT 9SM -SN FEW007 SCT021 OVC025 M03/M04 A2950 RMK SLP991=
METAR CYER 191400Z AUTO 08003KT 9SM -SN OVC031 M04/M04 A2950 RMK SLP993=
METAR CYER 191300Z AUTO 09004KT 9SM -SN BKN029 OVC036 M04/M04 A2951 RMK SLP995=

TAF CYER 191439Z 1915/1919 12008KT 6SM -SN OVC030 TEMPO 1915/1919 2SM
-SN BKN008 OVC020
RMK FCST BASED ON AUTO OBS. NXT FCST WILL BE ISSUED AT 200845Z=
Your time UTC time
Weather data provided by Environment Canada and NAV CANADA